sensor_id;sensor_type;location;lat;lon;timestamp;P1;durP1;ratioP1;P2;durP2;ratioP2
13872;SDS011;7006;51.494;11.964;2022-08-21T00:01:41;25.90;;;22.97;;
13872;SDS011;7006;51.494;11.964;2022-08-21T00:04:08;24.50;;;21.83;;
13872;SDS011;7006;51.494;11.964;2022-08-21T00:06:35;22.57;;;20.23;;
13872;SDS011;7006;51.494;11.964;2022-08-21T00:09:04;25.80;;;23.10;;
13872;SDS011;7006;51.494;11.964;2022-08-21T00:11:32;25.50;;;22.90;;
13872;SDS011;7006;51.494;11.964;2022-08-21T00:14:00;25.70;;;22.93;;
13872;SDS011;7006;51.494;11.964;2022-08-21T00:16:26;22.47;;;20.10;;
13872;SDS011;7006;51.494;11.964;2022-08-21T00:18:53;23.10;;;20.67;;
13872;SDS011;7006;51.494;11.964;2022-08-21T00:21:19;22.83;;;20.50;;
13872;SDS011;7006;51.494;11.964;2022-08-21T00:23:47;26.37;;;21.40;;
13872;SDS011;7006;51.494;11.964;2022-08-21T00:26:15;25.80;;;19.73;;
13872;SDS011;7006;51.494;11.964;2022-08-21T00:28:41;24.23;;;21.70;;
13872;SDS011;7006;51.494;11.964;2022-08-21T00:31:08;23.63;;;21.13;;
13872;SDS011;7006;51.494;11.964;2022-08-21T00:33:34;22.70;;;20.30;;
13872;SDS011;7006;51.494;11.964;2022-08-21T00:36:01;22.67;;;20.30;;
13872;SDS011;7006;51.494;11.964;2022-08-21T00:38:27;21.53;;;18.87;;
13872;SDS011;7006;51.494;11.964;2022-08-21T00:40:55;20.47;;;18.37;;
13872;SDS011;7006;51.494;11.964;2022-08-21T00:43:26;19.60;;;17.60;;
13872;SDS011;7006;51.494;11.964;2022-08-21T00:45:55;20.60;;;18.03;;
13872;SDS011;7006;51.494;11.964;2022-08-21T00:48:22;20.33;;;18.07;;
13872;SDS011;7006;51.494;11.964;2022-08-21T00:50:51;18.40;;;16.50;;
13872;SDS011;7006;51.494;11.964;2022-08-21T00:53:19;18.87;;;17.07;;
13872;SDS011;7006;51.494;11.964;2022-08-21T00:55:45;18.90;;;17.00;;
13872;SDS011;7006;51.494;11.964;2022-08-21T00:58:12;18.10;;;16.20;;
13872;SDS011;7006;51.494;11.964;2022-08-21T01:00:42;17.57;;;15.83;;
13872;SDS011;7006;51.494;11.964;2022-08-21T01:03:11;16.83;;;15.23;;
13872;SDS011;7006;51.494;11.964;2022-08-21T01:05:39;16.70;;;15.00;;
13872;SDS011;7006;51.494;11.964;2022-08-21T01:08:06;16.97;;;15.17;;
13872;SDS011;7006;51.494;11.964;2022-08-21T01:10:34;16.60;;;14.90;;
13872;SDS011;7006;51.494;11.964;2022-08-21T01:13:02;16.83;;;14.90;;
13872;SDS011;7006;51.494;11.964;2022-08-21T01:15:32;16.87;;;15.07;;
13872;SDS011;7006;51.494;11.964;2022-08-21T01:18:02;15.93;;;13.60;;
13872;SDS011;7006;51.494;11.964;2022-08-21T01:20:29;15.07;;;13.50;;
13872;SDS011;7006;51.494;11.964;2022-08-21T01:22:58;14.13;;;12.73;;
13872;SDS011;7006;51.494;11.964;2022-08-21T01:25:24;14.53;;;12.33;;
13872;SDS011;7006;51.494;11.964;2022-08-21T01:27:51;13.57;;;12.20;;
13872;SDS011;7006;51.494;11.964;2022-08-21T01:30:18;13.63;;;12.00;;
13872;SDS011;7006;51.494;11.964;2022-08-21T01:32:46;13.33;;;11.93;;
13872;SDS011;7006;51.494;11.964;2022-08-21T01:35:15;12.83;;;11.53;;
13872;SDS011;7006;51.494;11.964;2022-08-21T01:37:42;12.67;;;11.37;;
13872;SDS011;7006;51.494;11.964;2022-08-21T01:40:11;12.30;;;11.10;;
13872;SDS011;7006;51.494;11.964;2022-08-21T01:42:38;13.90;;;10.47;;
13872;SDS011;7006;51.494;11.964;2022-08-21T01:45:05;14.13;;;10.63;;
13872;SDS011;7006;51.494;11.964;2022-08-21T01:47:32;11.10;;;10.00;;
13872;SDS011;7006;51.494;11.964;2022-08-21T01:49:58;10.80;;;9.27;;
13872;SDS011;7006;51.494;11.964;2022-08-21T01:52:25;10.60;;;9.47;;
13872;SDS011;7006;51.494;11.964;2022-08-21T01:54:52;9.80;;;8.80;;
13872;SDS011;7006;51.494;11.964;2022-08-21T01:57:20;9.83;;;8.83;;
13872;SDS011;7006;51.494;11.964;2022-08-21T01:59:47;9.63;;;8.23;;
13872;SDS011;7006;51.494;11.964;2022-08-21T02:02:13;11.03;;;8.30;;
13872;SDS011;7006;51.494;11.964;2022-08-21T02:04:40;15.03;;;8.80;;
13872;SDS011;7006;51.494;11.964;2022-08-21T02:07:06;11.53;;;9.67;;
13872;SDS011;7006;51.494;11.964;2022-08-21T02:09:33;9.90;;;8.30;;
13872;SDS011;7006;51.494;11.964;2022-08-21T02:11:59;9.40;;;7.67;;
13872;SDS011;7006;51.494;11.964;2022-08-21T02:14:27;9.83;;;7.77;;
13872;SDS011;7006;51.494;11.964;2022-08-21T02:16:54;8.20;;;7.40;;
13872;SDS011;7006;51.494;11.964;2022-08-21T02:19:20;8.07;;;7.27;;
13872;SDS011;7006;51.494;11.964;2022-08-21T02:21:47;9.30;;;7.10;;
13872;SDS011;7006;51.494;11.964;2022-08-21T02:24:13;11.10;;;7.10;;
13872;SDS011;7006;51.494;11.964;2022-08-21T02:26:40;7.20;;;6.50;;
13872;SDS011;7006;51.494;11.964;2022-08-21T02:29:07;7.60;;;6.90;;
13872;SDS011;7006;51.494;11.964;2022-08-21T02:31:35;9.47;;;6.93;;
13872;SDS011;7006;51.494;11.964;2022-08-21T02:34:01;8.40;;;6.73;;
13872;SDS011;7006;51.494;11.964;2022-08-21T02:36:28;8.57;;;6.57;;
13872;SDS011;7006;51.494;11.964;2022-08-21T02:38:54;10.70;;;6.70;;
13872;SDS011;7006;51.494;11.964;2022-08-21T02:41:21;8.60;;;6.83;;
13872;SDS011;7006;51.494;11.964;2022-08-21T02:43:48;11.93;;;6.43;;
13872;SDS011;7006;51.494;11.964;2022-08-21T02:46:16;8.07;;;6.00;;
13872;SDS011;7006;51.494;11.964;2022-08-21T02:48:45;9.77;;;6.03;;
13872;SDS011;7006;51.494;11.964;2022-08-21T02:51:13;9.47;;;6.87;;
13872;SDS011;7006;51.494;11.964;2022-08-21T02:53:42;8.23;;;6.10;;
13872;SDS011;7006;51.494;11.964;2022-08-21T02:56:09;8.53;;;5.80;;
13872;SDS011;7006;51.494;11.964;2022-08-21T02:58:38;7.20;;;5.70;;
13872;SDS011;7006;51.494;11.964;2022-08-21T03:01:06;7.27;;;5.20;;
13872;SDS011;7006;51.494;11.964;2022-08-21T03:03:34;8.80;;;5.20;;
13872;SDS011;7006;51.494;11.964;2022-08-21T03:06:02;8.07;;;5.60;;
13872;SDS011;7006;51.494;11.964;2022-08-21T03:08:29;12.43;;;5.93;;
13872;SDS011;7006;51.494;11.964;2022-08-21T03:10:56;7.60;;;5.53;;
13872;SDS011;7006;51.494;11.964;2022-08-21T03:13:25;10.10;;;6.10;;
13872;SDS011;7006;51.494;11.964;2022-08-21T03:15:52;8.20;;;5.77;;
13872;SDS011;7006;51.494;11.964;2022-08-21T03:18:19;8.17;;;5.63;;
13872;SDS011;7006;51.494;11.964;2022-08-21T03:20:46;6.37;;;5.20;;
13872;SDS011;7006;51.494;11.964;2022-08-21T03:23:14;9.03;;;5.60;;
13872;SDS011;7006;51.494;11.964;2022-08-21T03:25:42;8.80;;;5.10;;
13872;SDS011;7006;51.494;11.964;2022-08-21T03:28:12;6.80;;;5.37;;
13872;SDS011;7006;51.494;11.964;2022-08-21T03:30:39;6.73;;;5.03;;
13872;SDS011;7006;51.494;11.964;2022-08-21T03:33:06;8.03;;;5.60;;
13872;SDS011;7006;51.494;11.964;2022-08-21T03:35:32;6.40;;;5.60;;
13872;SDS011;7006;51.494;11.964;2022-08-21T03:37:59;8.20;;;5.67;;
13872;SDS011;7006;51.494;11.964;2022-08-21T03:40:27;7.50;;;5.73;;
13872;SDS011;7006;51.494;11.964;2022-08-21T03:42:54;6.20;;;5.07;;
13872;SDS011;7006;51.494;11.964;2022-08-21T03:45:20;8.53;;;5.57;;
13872;SDS011;7006;51.494;11.964;2022-08-21T03:47:51;7.70;;;6.30;;
13872;SDS011;7006;51.494;11.964;2022-08-21T03:50:19;8.23;;;5.80;;
13872;SDS011;7006;51.494;11.964;2022-08-21T03:52:45;7.80;;;5.47;;
13872;SDS011;7006;51.494;11.964;2022-08-21T03:55:12;8.20;;;5.90;;
13872;SDS011;7006;51.494;11.964;2022-08-21T03:57:40;8.67;;;5.93;;
13872;SDS011;7006;51.494;11.964;2022-08-21T04:00:07;7.20;;;5.27;;
13872;SDS011;7006;51.494;11.964;2022-08-21T04:02:36;8.00;;;5.90;;
13872;SDS011;7006;51.494;11.964;2022-08-21T04:05:03;9.77;;;6.30;;
13872;SDS011;7006;51.494;11.964;2022-08-21T04:07:31;10.20;;;5.87;;
13872;SDS011;7006;51.494;11.964;2022-08-21T04:09:57;8.23;;;5.90;;
13872;SDS011;7006;51.494;11.964;2022-08-21T04:12:24;8.00;;;5.87;;
13872;SDS011;7006;51.494;11.964;2022-08-21T04:14:52;9.60;;;6.50;;
13872;SDS011;7006;51.494;11.964;2022-08-21T04:17:18;12.17;;;6.50;;
13872;SDS011;7006;51.494;11.964;2022-08-21T04:19:45;8.10;;;6.30;;
13872;SDS011;7006;51.494;11.964;2022-08-21T04:22:11;10.43;;;7.03;;
13872;SDS011;7006;51.494;11.964;2022-08-21T04:24:38;10.43;;;7.10;;
13872;SDS011;7006;51.494;11.964;2022-08-21T04:27:04;8.40;;;7.10;;
13872;SDS011;7006;51.494;11.964;2022-08-21T04:29:31;9.57;;;6.87;;
13872;SDS011;7006;51.494;11.964;2022-08-21T04:31:59;9.43;;;7.20;;
13872;SDS011;7006;51.494;11.964;2022-08-21T04:34:25;10.77;;;7.00;;
13872;SDS011;7006;51.494;11.964;2022-08-21T04:36:52;8.90;;;7.13;;
13872;SDS011;7006;51.494;11.964;2022-08-21T04:39:18;13.03;;;8.30;;
13872;SDS011;7006;51.494;11.964;2022-08-21T04:41:45;9.20;;;7.57;;
13872;SDS011;7006;51.494;11.964;2022-08-21T04:44:11;10.47;;;7.50;;
13872;SDS011;7006;51.494;11.964;2022-08-21T04:46:37;12.37;;;8.63;;
13872;SDS011;7006;51.494;11.964;2022-08-21T04:49:05;9.57;;;7.67;;
13872;SDS011;7006;51.494;11.964;2022-08-21T04:51:33;10.20;;;7.50;;
13872;SDS011;7006;51.494;11.964;2022-08-21T04:54:02;11.33;;;7.63;;
13872;SDS011;7006;51.494;11.964;2022-08-21T04:56:33;13.20;;;7.80;;
13872;SDS011;7006;51.494;11.964;2022-08-21T04:59:01;12.90;;;7.30;;
13872;SDS011;7006;51.494;11.964;2022-08-21T05:01:32;9.37;;;7.03;;
13872;SDS011;7006;51.494;11.964;2022-08-21T05:04:00;9.47;;;7.30;;
13872;SDS011;7006;51.494;11.964;2022-08-21T05:06:31;9.60;;;7.40;;
13872;SDS011;7006;51.494;11.964;2022-08-21T05:09:00;12.80;;;7.60;;
13872;SDS011;7006;51.494;11.964;2022-08-21T05:11:27;10.38;;;7.80;;
13872;SDS011;7006;51.494;11.964;2022-08-21T05:13:53;8.87;;;7.97;;
13872;SDS011;7006;51.494;11.964;2022-08-21T05:16:20;10.13;;;7.73;;
13872;SDS011;7006;51.494;11.964;2022-08-21T05:18:46;12.17;;;8.30;;
13872;SDS011;7006;51.494;11.964;2022-08-21T05:21:12;10.83;;;7.37;;
13872;SDS011;7006;51.494;11.964;2022-08-21T05:23:40;11.43;;;7.37;;
13872;SDS011;7006;51.494;11.964;2022-08-21T05:26:07;10.67;;;7.87;;
13872;SDS011;7006;51.494;11.964;2022-08-21T05:28:34;11.13;;;7.13;;
13872;SDS011;7006;51.494;11.964;2022-08-21T05:31:01;12.57;;;8.20;;
13872;SDS011;7006;51.494;11.964;2022-08-21T05:33:27;11.33;;;7.73;;
13872;SDS011;7006;51.494;11.964;2022-08-21T05:35:54;10.03;;;7.07;;
13872;SDS011;7006;51.494;11.964;2022-08-21T05:38:21;10.57;;;6.83;;
13872;SDS011;7006;51.494;11.964;2022-08-21T05:40:49;8.83;;;7.93;;
13872;SDS011;7006;51.494;11.964;2022-08-21T05:43:16;9.20;;;7.13;;
13872;SDS011;7006;51.494;11.964;2022-08-21T05:45:42;12.10;;;7.30;;
13872;SDS011;7006;51.494;11.964;2022-08-21T05:48:09;9.97;;;6.50;;
13872;SDS011;7006;51.494;11.964;2022-08-21T05:50:38;9.60;;;6.60;;
13872;SDS011;7006;51.494;11.964;2022-08-21T05:53:05;7.70;;;6.00;;
13872;SDS011;7006;51.494;11.964;2022-08-21T05:55:32;6.90;;;6.20;;
13872;SDS011;7006;51.494;11.964;2022-08-21T05:58:00;10.50;;;6.87;;
13872;SDS011;7006;51.494;11.964;2022-08-21T06:00:26;11.10;;;6.30;;
13872;SDS011;7006;51.494;11.964;2022-08-21T06:02:52;9.90;;;6.23;;
13872;SDS011;7006;51.494;11.964;2022-08-21T06:05:19;8.67;;;6.40;;
13872;SDS011;7006;51.494;11.964;2022-08-21T06:07:45;8.27;;;6.63;;
13872;SDS011;7006;51.494;11.964;2022-08-21T06:10:12;7.50;;;6.00;;
13872;SDS011;7006;51.494;11.964;2022-08-21T06:12:39;9.83;;;8.83;;
13872;SDS011;7006;51.494;11.964;2022-08-21T06:15:07;7.87;;;6.70;;
13872;SDS011;7006;51.494;11.964;2022-08-21T06:17:34;8.27;;;5.77;;
13872;SDS011;7006;51.494;11.964;2022-08-21T06:20:00;8.60;;;6.00;;
13872;SDS011;7006;51.494;11.964;2022-08-21T06:22:27;10.10;;;6.30;;
13872;SDS011;7006;51.494;11.964;2022-08-21T06:24:54;8.43;;;6.37;;
13872;SDS011;7006;51.494;11.964;2022-08-21T06:27:20;9.23;;;6.67;;
13872;SDS011;7006;51.494;11.964;2022-08-21T06:29:47;7.13;;;6.27;;
13872;SDS011;7006;51.494;11.964;2022-08-21T06:32:14;10.33;;;5.90;;
13872;SDS011;7006;51.494;11.964;2022-08-21T06:34:41;9.17;;;6.10;;
13872;SDS011;7006;51.494;11.964;2022-08-21T06:37:07;10.23;;;6.60;;
13872;SDS011;7006;51.494;11.964;2022-08-21T06:39:34;7.83;;;5.00;;
13872;SDS011;7006;51.494;11.964;2022-08-21T06:42:01;6.50;;;5.33;;
13872;SDS011;7006;51.494;11.964;2022-08-21T06:44:28;11.00;;;5.77;;
13872;SDS011;7006;51.494;11.964;2022-08-21T06:46:55;6.20;;;5.60;;
13872;SDS011;7006;51.494;11.964;2022-08-21T06:49:23;7.00;;;5.43;;
13872;SDS011;7006;51.494;11.964;2022-08-21T06:51:49;8.37;;;5.10;;
13872;SDS011;7006;51.494;11.964;2022-08-21T06:54:16;7.77;;;4.60;;
13872;SDS011;7006;51.494;11.964;2022-08-21T06:56:42;8.03;;;5.30;;
13872;SDS011;7006;51.494;11.964;2022-08-21T06:59:09;5.80;;;5.17;;
13872;SDS011;7006;51.494;11.964;2022-08-21T07:01:35;8.03;;;5.50;;
13872;SDS011;7006;51.494;11.964;2022-08-21T07:04:02;9.87;;;5.27;;
13872;SDS011;7006;51.494;11.964;2022-08-21T07:06:30;8.20;;;5.57;;
13872;SDS011;7006;51.494;11.964;2022-08-21T07:08:56;6.20;;;4.90;;
13872;SDS011;7006;51.494;11.964;2022-08-21T07:11:23;9.40;;;4.97;;
13872;SDS011;7006;51.494;11.964;2022-08-21T07:13:50;7.70;;;4.90;;
13872;SDS011;7006;51.494;11.964;2022-08-21T07:16:19;9.17;;;5.50;;
13872;SDS011;7006;51.494;11.964;2022-08-21T07:18:45;7.60;;;4.90;;
13872;SDS011;7006;51.494;11.964;2022-08-21T07:21:12;8.80;;;5.13;;
13872;SDS011;7006;51.494;11.964;2022-08-21T07:23:40;6.70;;;4.83;;
13872;SDS011;7006;51.494;11.964;2022-08-21T07:26:09;7.90;;;4.73;;
13872;SDS011;7006;51.494;11.964;2022-08-21T07:28:36;6.50;;;4.73;;
13872;SDS011;7006;51.494;11.964;2022-08-21T07:31:03;7.30;;;4.60;;
13872;SDS011;7006;51.494;11.964;2022-08-21T07:33:30;8.00;;;5.10;;
13872;SDS011;7006;51.494;11.964;2022-08-21T07:35:58;12.40;;;5.00;;
13872;SDS011;7006;51.494;11.964;2022-08-21T07:38:25;8.23;;;3.90;;
13872;SDS011;7006;51.494;11.964;2022-08-21T07:40:54;6.23;;;4.47;;
13872;SDS011;7006;51.494;11.964;2022-08-21T07:43:23;8.13;;;4.57;;
13872;SDS011;7006;51.494;11.964;2022-08-21T07:45:50;7.30;;;4.20;;
13872;SDS011;7006;51.494;11.964;2022-08-21T07:48:18;5.90;;;4.00;;
13872;SDS011;7006;51.494;11.964;2022-08-21T07:50:44;8.27;;;4.30;;
13872;SDS011;7006;51.494;11.964;2022-08-21T07:53:11;7.73;;;3.83;;
13872;SDS011;7006;51.494;11.964;2022-08-21T07:55:37;7.30;;;4.10;;
13872;SDS011;7006;51.494;11.964;2022-08-21T07:58:05;8.33;;;4.53;;
13872;SDS011;7006;51.494;11.964;2022-08-21T08:00:33;5.70;;;3.90;;
13872;SDS011;7006;51.494;11.964;2022-08-21T08:03:00;8.23;;;4.00;;
13872;SDS011;7006;51.494;11.964;2022-08-21T08:05:28;7.10;;;4.33;;
13872;SDS011;7006;51.494;11.964;2022-08-21T08:07:56;7.33;;;4.10;;
13872;SDS011;7006;51.494;11.964;2022-08-21T08:10:23;7.40;;;3.67;;
13872;SDS011;7006;51.494;11.964;2022-08-21T08:12:52;8.93;;;3.70;;
13872;SDS011;7006;51.494;11.964;2022-08-21T08:15:21;5.53;;;3.90;;
13872;SDS011;7006;51.494;11.964;2022-08-21T08:17:49;9.40;;;4.03;;
13872;SDS011;7006;51.494;11.964;2022-08-21T08:20:16;8.70;;;7.30;;
13872;SDS011;7006;51.494;11.964;2022-08-21T08:22:44;6.80;;;3.90;;
13872;SDS011;7006;51.494;11.964;2022-08-21T08:25:12;4.70;;;3.53;;
13872;SDS011;7006;51.494;11.964;2022-08-21T08:27:39;5.50;;;3.60;;
13872;SDS011;7006;51.494;11.964;2022-08-21T08:30:07;6.73;;;3.63;;
13872;SDS011;7006;51.494;11.964;2022-08-21T08:32:37;5.80;;;4.00;;
13872;SDS011;7006;51.494;11.964;2022-08-21T08:35:04;6.70;;;3.90;;
13872;SDS011;7006;51.494;11.964;2022-08-21T08:37:32;10.83;;;3.97;;
13872;SDS011;7006;51.494;11.964;2022-08-21T08:39:59;5.43;;;3.17;;
13872;SDS011;7006;51.494;11.964;2022-08-21T08:42:27;5.60;;;3.47;;
13872;SDS011;7006;51.494;11.964;2022-08-21T08:44:56;7.37;;;3.50;;
13872;SDS011;7006;51.494;11.964;2022-08-21T08:47:24;4.67;;;3.37;;
13872;SDS011;7006;51.494;11.964;2022-08-21T08:49:55;6.13;;;3.57;;
13872;SDS011;7006;51.494;11.964;2022-08-21T08:52:26;6.23;;;3.57;;
13872;SDS011;7006;51.494;11.964;2022-08-21T08:54:55;5.23;;;3.33;;
13872;SDS011;7006;51.494;11.964;2022-08-21T08:57:26;4.70;;;3.10;;
13872;SDS011;7006;51.494;11.964;2022-08-21T08:59:54;7.77;;;3.30;;
13872;SDS011;7006;51.494;11.964;2022-08-21T09:02:22;6.67;;;3.37;;
13872;SDS011;7006;51.494;11.964;2022-08-21T09:04:50;5.50;;;3.57;;
13872;SDS011;7006;51.494;11.964;2022-08-21T09:07:19;4.73;;;3.10;;
13872;SDS011;7006;51.494;11.964;2022-08-21T09:10:00;6.40;;;2.93;;
13872;SDS011;7006;51.494;11.964;2022-08-21T09:12:37;4.37;;;2.57;;
13872;SDS011;7006;51.494;11.964;2022-08-21T09:15:06;4.87;;;2.53;;
13872;SDS011;7006;51.494;11.964;2022-08-21T09:17:46;4.27;;;2.50;;
13872;SDS011;7006;51.494;11.964;2022-08-21T09:20:23;5.60;;;2.93;;
13872;SDS011;7006;51.494;11.964;2022-08-21T09:22:59;6.63;;;2.93;;
13872;SDS011;7006;51.494;11.964;2022-08-21T09:25:33;5.57;;;2.60;;
13872;SDS011;7006;51.494;11.964;2022-08-21T09:28:00;3.70;;;2.17;;
13872;SDS011;7006;51.494;11.964;2022-08-21T09:30:28;4.50;;;2.70;;
13872;SDS011;7006;51.494;11.964;2022-08-21T09:32:56;4.63;;;2.30;;
13872;SDS011;7006;51.494;11.964;2022-08-21T09:35:23;6.30;;;2.93;;
13872;SDS011;7006;51.494;11.964;2022-08-21T09:37:50;5.60;;;2.47;;
13872;SDS011;7006;51.494;11.964;2022-08-21T09:40:25;5.60;;;2.70;;
13872;SDS011;7006;51.494;11.964;2022-08-21T09:42:56;4.50;;;2.63;;
13872;SDS011;7006;51.494;11.964;2022-08-21T09:45:24;7.07;;;2.93;;
13872;SDS011;7006;51.494;11.964;2022-08-21T09:47:50;6.40;;;2.90;;
13872;SDS011;7006;51.494;11.964;2022-08-21T09:50:18;5.33;;;2.50;;
13872;SDS011;7006;51.494;11.964;2022-08-21T09:52:48;7.67;;;3.03;;
13872;SDS011;7006;51.494;11.964;2022-08-21T09:55:18;9.20;;;2.90;;
13872;SDS011;7006;51.494;11.964;2022-08-21T09:58:07;7.03;;;3.30;;
13872;SDS011;7006;51.494;11.964;2022-08-21T10:00:34;5.20;;;2.80;;
13872;SDS011;7006;51.494;11.964;2022-08-21T10:03:12;6.53;;;2.80;;
13872;SDS011;7006;51.494;11.964;2022-08-21T10:05:49;5.63;;;2.80;;
13872;SDS011;7006;51.494;11.964;2022-08-21T10:08:22;6.67;;;2.50;;
13872;SDS011;7006;51.494;11.964;2022-08-21T10:10:51;4.03;;;2.60;;
13872;SDS011;7006;51.494;11.964;2022-08-21T10:13:22;5.00;;;2.60;;
13872;SDS011;7006;51.494;11.964;2022-08-21T10:15:56;5.60;;;3.23;;
13872;SDS011;7006;51.494;11.964;2022-08-21T10:18:28;4.10;;;2.60;;
13872;SDS011;7006;51.494;11.964;2022-08-21T10:20:58;7.00;;;2.73;;
13872;SDS011;7006;51.494;11.964;2022-08-21T10:23:30;4.67;;;2.40;;
13872;SDS011;7006;51.494;11.964;2022-08-21T10:26:07;5.03;;;2.40;;
13872;SDS011;7006;51.494;11.964;2022-08-21T10:28:37;6.30;;;2.70;;
13872;SDS011;7006;51.494;11.964;2022-08-21T10:31:07;6.07;;;2.77;;
13872;SDS011;7006;51.494;11.964;2022-08-21T10:33:39;7.33;;;2.97;;
13872;SDS011;7006;51.494;11.964;2022-08-21T10:36:11;5.03;;;3.00;;
13872;SDS011;7006;51.494;11.964;2022-08-21T10:38:52;5.60;;;2.67;;
13872;SDS011;7006;51.494;11.964;2022-08-21T10:41:27;5.67;;;2.80;;
13872;SDS011;7006;51.494;11.964;2022-08-21T10:44:00;7.47;;;2.70;;
13872;SDS011;7006;51.494;11.964;2022-08-21T10:46:39;7.53;;;3.13;;
13872;SDS011;7006;51.494;11.964;2022-08-21T10:49:13;5.33;;;3.17;;
13872;SDS011;7006;51.494;11.964;2022-08-21T10:51:49;4.70;;;2.67;;
13872;SDS011;7006;51.494;11.964;2022-08-21T10:54:25;5.07;;;3.57;;
13872;SDS011;7006;51.494;11.964;2022-08-21T10:57:00;4.90;;;2.70;;
13872;SDS011;7006;51.494;11.964;2022-08-21T10:59:31;7.13;;;3.20;;
13872;SDS011;7006;51.494;11.964;2022-08-21T11:02:02;6.30;;;2.97;;
13872;SDS011;7006;51.494;11.964;2022-08-21T11:04:31;4.17;;;2.60;;
13872;SDS011;7006;51.494;11.964;2022-08-21T11:07:00;6.80;;;3.30;;
13872;SDS011;7006;51.494;11.964;2022-08-21T11:09:28;6.80;;;2.60;;
13872;SDS011;7006;51.494;11.964;2022-08-21T11:11:57;6.00;;;2.80;;
13872;SDS011;7006;51.494;11.964;2022-08-21T11:14:30;6.03;;;3.90;;
13872;SDS011;7006;51.494;11.964;2022-08-21T11:17:05;5.47;;;3.17;;
13872;SDS011;7006;51.494;11.964;2022-08-21T11:19:35;7.87;;;3.57;;
13872;SDS011;7006;51.494;11.964;2022-08-21T11:22:06;5.60;;;3.47;;
13872;SDS011;7006;51.494;11.964;2022-08-21T11:24:39;5.50;;;3.00;;
13872;SDS011;7006;51.494;11.964;2022-08-21T11:27:13;5.43;;;2.70;;
13872;SDS011;7006;51.494;11.964;2022-08-21T11:29:44;6.57;;;3.27;;
13872;SDS011;7006;51.494;11.964;2022-08-21T11:32:24;6.83;;;3.37;;
13872;SDS011;7006;51.494;11.964;2022-08-21T11:34:59;8.20;;;3.23;;
13872;SDS011;7006;51.494;11.964;2022-08-21T11:37:34;5.30;;;3.37;;
13872;SDS011;7006;51.494;11.964;2022-08-21T11:40:09;10.83;;;3.23;;
13872;SDS011;7006;51.494;11.964;2022-08-21T11:42:42;6.23;;;2.67;;
13872;SDS011;7006;51.494;11.964;2022-08-21T11:45:14;5.83;;;2.77;;
13872;SDS011;7006;51.494;11.964;2022-08-21T11:47:50;5.30;;;2.73;;
13872;SDS011;7006;51.494;11.964;2022-08-21T11:50:22;5.30;;;2.50;;
13872;SDS011;7006;51.494;11.964;2022-08-21T11:52:53;5.50;;;2.77;;
13872;SDS011;7006;51.494;11.964;2022-08-21T11:55:23;9.63;;;2.80;;
13872;SDS011;7006;51.494;11.964;2022-08-21T11:57:55;7.20;;;2.80;;
13872;SDS011;7006;51.494;11.964;2022-08-21T12:00:26;5.13;;;2.57;;
13872;SDS011;7006;51.494;11.964;2022-08-21T12:02:55;5.17;;;2.77;;
13872;SDS011;7006;51.494;11.964;2022-08-21T12:05:25;6.03;;;2.93;;
13872;SDS011;7006;51.494;11.964;2022-08-21T12:08:02;6.40;;;2.97;;
13872;SDS011;7006;51.494;11.964;2022-08-21T12:10:31;6.20;;;3.03;;
13872;SDS011;7006;51.494;11.964;2022-08-21T12:13:06;8.77;;;2.67;;
13872;SDS011;7006;51.494;11.964;2022-08-21T12:15:36;6.10;;;2.60;;
13872;SDS011;7006;51.494;11.964;2022-08-21T12:18:04;5.47;;;3.13;;
13872;SDS011;7006;51.494;11.964;2022-08-21T12:20:42;4.90;;;2.53;;
13872;SDS011;7006;51.494;11.964;2022-08-21T12:23:17;7.17;;;3.10;;
13872;SDS011;7006;51.494;11.964;2022-08-21T12:25:58;6.90;;;3.20;;
13872;SDS011;7006;51.494;11.964;2022-08-21T12:28:29;7.13;;;3.40;;
13872;SDS011;7006;51.494;11.964;2022-08-21T12:30:57;6.40;;;2.90;;
13872;SDS011;7006;51.494;11.964;2022-08-21T12:33:25;6.80;;;3.00;;
13872;SDS011;7006;51.494;11.964;2022-08-21T12:36:01;4.97;;;3.13;;
13872;SDS011;7006;51.494;11.964;2022-08-21T12:38:32;6.37;;;3.53;;
13872;SDS011;7006;51.494;11.964;2022-08-21T12:41:06;9.20;;;3.67;;
13872;SDS011;7006;51.494;11.964;2022-08-21T12:43:38;5.20;;;3.67;;
13872;SDS011;7006;51.494;11.964;2022-08-21T12:46:06;4.23;;;3.27;;
13872;SDS011;7006;51.494;11.964;2022-08-21T12:48:43;5.80;;;3.53;;
13872;SDS011;7006;51.494;11.964;2022-08-21T12:51:14;6.57;;;3.93;;
13872;SDS011;7006;51.494;11.964;2022-08-21T12:53:44;5.63;;;3.53;;
13872;SDS011;7006;51.494;11.964;2022-08-21T12:56:13;5.40;;;3.90;;
13872;SDS011;7006;51.494;11.964;2022-08-21T12:58:45;7.77;;;3.70;;
13872;SDS011;7006;51.494;11.964;2022-08-21T13:01:15;4.90;;;4.17;;
13872;SDS011;7006;51.494;11.964;2022-08-21T13:03:46;8.33;;;4.20;;
13872;SDS011;7006;51.494;11.964;2022-08-21T13:06:13;8.30;;;3.90;;
13872;SDS011;7006;51.494;11.964;2022-08-21T13:08:41;5.33;;;3.10;;
13872;SDS011;7006;51.494;11.964;2022-08-21T13:11:09;4.53;;;3.17;;
13872;SDS011;7006;51.494;11.964;2022-08-21T13:13:36;8.13;;;3.97;;
13872;SDS011;7006;51.494;11.964;2022-08-21T13:16:05;5.30;;;3.60;;
13872;SDS011;7006;51.494;11.964;2022-08-21T13:18:33;4.93;;;3.40;;
13872;SDS011;7006;51.494;11.964;2022-08-21T13:21:05;5.27;;;3.40;;
13872;SDS011;7006;51.494;11.964;2022-08-21T13:23:33;5.50;;;3.57;;
13872;SDS011;7006;51.494;11.964;2022-08-21T13:26:00;4.13;;;3.10;;
13872;SDS011;7006;51.494;11.964;2022-08-21T13:28:32;6.43;;;3.50;;
13872;SDS011;7006;51.494;11.964;2022-08-21T13:30:59;4.90;;;3.30;;
13872;SDS011;7006;51.494;11.964;2022-08-21T13:33:27;7.20;;;4.03;;
13872;SDS011;7006;51.494;11.964;2022-08-21T13:35:58;7.33;;;3.17;;
13872;SDS011;7006;51.494;11.964;2022-08-21T13:38:30;6.80;;;3.90;;
13872;SDS011;7006;51.494;11.964;2022-08-21T13:40:58;5.90;;;3.40;;
13872;SDS011;7006;51.494;11.964;2022-08-21T13:43:28;4.97;;;3.20;;
13872;SDS011;7006;51.494;11.964;2022-08-21T13:45:58;6.00;;;3.60;;
13872;SDS011;7006;51.494;11.964;2022-08-21T13:48:28;4.87;;;3.17;;
13872;SDS011;7006;51.494;11.964;2022-08-21T13:50:57;6.50;;;3.53;;
13872;SDS011;7006;51.494;11.964;2022-08-21T13:53:27;7.20;;;3.47;;
13872;SDS011;7006;51.494;11.964;2022-08-21T13:55:55;5.10;;;3.33;;
13872;SDS011;7006;51.494;11.964;2022-08-21T13:58:24;5.83;;;3.10;;
13872;SDS011;7006;51.494;11.964;2022-08-21T14:00:52;6.10;;;3.00;;
13872;SDS011;7006;51.494;11.964;2022-08-21T14:03:23;8.70;;;3.50;;
13872;SDS011;7006;51.494;11.964;2022-08-21T14:05:55;5.30;;;3.00;;
13872;SDS011;7006;51.494;11.964;2022-08-21T14:08:23;7.63;;;3.40;;
13872;SDS011;7006;51.494;11.964;2022-08-21T14:10:52;5.57;;;3.00;;
13872;SDS011;7006;51.494;11.964;2022-08-21T14:13:24;6.23;;;3.30;;
13872;SDS011;7006;51.494;11.964;2022-08-21T14:15:56;4.90;;;2.83;;
13872;SDS011;7006;51.494;11.964;2022-08-21T14:18:24;5.63;;;3.17;;
13872;SDS011;7006;51.494;11.964;2022-08-21T14:20:51;4.83;;;3.20;;
13872;SDS011;7006;51.494;11.964;2022-08-21T14:23:24;5.07;;;3.00;;
13872;SDS011;7006;51.494;11.964;2022-08-21T14:25:52;4.40;;;3.00;;
13872;SDS011;7006;51.494;11.964;2022-08-21T14:28:19;6.80;;;3.03;;
13872;SDS011;7006;51.494;11.964;2022-08-21T14:30:50;6.33;;;3.53;;
13872;SDS011;7006;51.494;11.964;2022-08-21T14:33:20;4.83;;;3.20;;
13872;SDS011;7006;51.494;11.964;2022-08-21T14:35:49;6.10;;;3.20;;
13872;SDS011;7006;51.494;11.964;2022-08-21T14:38:17;6.33;;;3.23;;
13872;SDS011;7006;51.494;11.964;2022-08-21T14:40:47;4.73;;;2.70;;
13872;SDS011;7006;51.494;11.964;2022-08-21T14:43:15;4.63;;;3.20;;
13872;SDS011;7006;51.494;11.964;2022-08-21T14:45:41;9.30;;;3.20;;
13872;SDS011;7006;51.494;11.964;2022-08-21T14:48:09;5.80;;;3.60;;
13872;SDS011;7006;51.494;11.964;2022-08-21T14:50:35;5.23;;;3.40;;
13872;SDS011;7006;51.494;11.964;2022-08-21T14:53:02;4.60;;;3.13;;